Last 48 Hours

Top of 15 - 9,047ft

15 Minute Data | America/Los_Angeles
as of 9/3/26 10:31 AM PDT
Date & Time Temp (°F) WindChill (°F) RH (%) Dew Pt (°F) Wet Bulb (°F) Wind Dir (°) Wind Spd (mph) Wind Gust (mph) Wind Gst Dir (°) Daily Min Temp (°F) Daily Max Temp (°F) Daily Max Wind (mph)
9/3/26 - 1030 47.1 43.7 33 19.4 36.8 SW | 220 6.9 22.2 SW | 225 41.0 47.9 27.8
9/3/26 - 1015 47.0 43.6 32 18.9 36.6 SW | 223 6.8 27.8 SSW | 202 41.0 47.9 27.8
9/3/26 - 1000 46.9 42.4 32 18.3 36.4 SW | 223 9.2 23.9 WSW | 246 41.0 47.7 24.4
9/3/26 - 0945 46.7 42.3 30 17.2 36.0 SW | 218 8.9 24.4 WSW | 255 41.0 47.7 24.4
9/3/26 - 0930 45.7 42.3 30 16.2 35.3 SW | 215 6.3 21.5 WSW | 243 41.0 46.4 21.5
9/3/26 - 0915 45.1 42.3 31 16.5 35.0 SSW | 211 5.2 17.4 SW | 223 41.0 46.3 20.6
9/3/26 - 0900 44.2 39.9 34 17.5 34.8 SW | 223 7.7 20.6 SSW | 197 41.0 45.9 20.6
9/3/26 - 0845 44.2 40.6 35 18.4 34.9 SW | 220 6.2 14.9 SSW | 202 41.0 45.9 18.9
9/3/26 - 0830 43.6 38.8 38 19.8 35.0 SSW | 208 8.4 18.4 SW | 219 41.0 45.9 18.9
9/3/26 - 0815 43.2 40.2 37 18.3 34.4 SW | 227 5.0 15.0 WNW | 296 41.0 45.9 18.9
9/3/26 - 0800 42.7 39.2 35 16.6 33.7 SW | 224 5.5 14.7 SW | 226 41.0 45.9 18.9
9/3/26 - 0745 42.9 40.8 29 12.5 33.0 SSW | 200 4.0 14.2 SW | 230 41.0 45.9 18.9
9/3/26 - 0730 43.2 41.2 26 10.4 32.7 SSW | 195 3.7 14.2 SSW | 207 41.0 45.9 18.9
9/3/26 - 0715 43.0 41.6 25 9.3 32.5 SSW | 201 3.2 16.7 SW | 225 41.0 45.9 18.9
9/3/26 - 0700 42.5 41.1 27 10.6 32.4 SSW | 194 3.0 13.8 SSW | 195 41.0 45.9 18.9
9/3/26 - 0645 42.0 39.5 28 11.1 32.2 S | 191 4.1 14.4 SSW | 208 41.0 45.9 18.9
9/3/26 - 0630 41.6 39.4 30 12.2 32.1 SSW | 201 3.8 11.1 SSW | 192 41.0 45.9 18.9
9/3/26 - 0615 41.9 - 28 11.0 32.1 SSW | 194 2.0 10.7 SSE | 163 41.0 45.9 18.9
9/3/26 - 0600 42.4 40.9 24 7.8 31.8 SSW | 202 3.2 13.0 WNW | 289 41.0 45.9 18.9
9/3/26 - 0545 42.6 - 23 7.0 31.8 SSW | 197 2.7 11.4 WNW | 294 41.0 45.9 18.9
9/3/26 - 0530 42.4 39.4 25 8.7 32.0 SSW | 213 4.8 16.8 WSW | 250 41.0 45.9 18.9
9/3/26 - 0515 41.8 39.9 30 12.1 32.2 SSW | 211 3.5 13.9 SSW | 194 41.0 45.9 18.9
9/3/26 - 0500 41.7 - 32 13.7 32.5 SE | 146 2.5 9.5 ESE | 119 41.0 45.9 18.9
9/3/26 - 0445 41.4 - 35 16.1 32.8 E | 84 2.9 12.2 NW | 307 41.0 45.9 18.9
9/3/26 - 0430 41.2 - 38 17.4 33.0 NNE | 22 2.8 12.4 SSW | 199 41.1 45.9 18.9
9/3/26 - 0415 41.4 - 36 16.2 32.9 ENE | 67 2.3 14.2 SSW | 197 41.3 45.9 18.9
9/3/26 - 0400 41.5 39.4 35 15.6 32.8 NNE | 16 3.6 16.0 N | 4 41.4 45.9 18.9
9/3/26 - 0345 41.6 - 34 15.3 32.8 NW | 312 1.3 5.2 SW | 221 41.5 45.9 18.9
9/3/26 - 0330 41.8 40.1 34 15.5 32.9 S | 182 3.2 18.9 SW | 223 41.6 45.9 18.9
9/3/26 - 0315 42.1 - 34 15.7 33.1 WSW | 254 2.9 12.8 SSW | 212 41.6 45.9 15.7
9/3/26 - 0300 42.5 40.7 33 15.2 33.2 NNE | 23 3.5 12.6 N | 8 41.9 45.9 15.7
9/3/26 - 0245 42.9 41.5 30 13.8 33.2 NE | 48 3.1 15.6 NNE | 12 41.9 45.9 15.7
9/3/26 - 0230 43.0 - 32 15.1 33.5 NE | 49 2.9 7.9 E | 87 41.9 45.9 15.7
9/3/26 - 0215 42.7 - 33 15.4 33.4 E | 93 2.6 8.8 SW | 223 41.9 45.9 15.7
9/3/26 - 0200 42.9 - 33 16.0 33.7 S | 176 2.3 8.2 ESE | 117 42.3 45.9 15.7
9/3/26 - 0145 43.4 - 32 15.6 33.9 E | 94 2.2 15.7 S | 178 43.2 45.9 15.7
9/3/26 - 0130 44.9 - 25 10.6 33.8 E | 86 2.0 9.2 ESE | 107 43.8 45.9 9.9
9/3/26 - 0115 45.3 - 23 9.3 33.8 SE | 131 2.1 9.9 SE | 125 44.9 45.9 9.9
9/3/26 - 0100 45.6 41.0 24 10.3 34.1 SW | 219 9.0 25.6 WSW | 257 35.6 49.2 38.0
9/3/26 - 0045 45.9 41.2 26 12.6 34.7 SSW | 213 9.4 30.0 WSW | 254 35.6 49.2 38.0
9/3/26 - 0030 46.3 41.4 27 14.2 35.2 SW | 223 10.3 24.5 WSW | 244 35.6 49.2 38.0
9/3/26 - 0015 46.2 41.0 28 14.6 35.2 SW | 234 10.7 24.0 WSW | 250 35.6 49.2 38.0
9/3/26 - 0000 46.0 41.0 26 12.6 34.7 SW | 235 10.4 24.1 WSW | 251 35.6 49.2 38.0
9/2/26 - 2345 45.0 39.1 29 14.7 34.6 WSW | 248 12.1 24.0 WSW | 249 35.6 49.2 38.0
9/2/26 - 2330 44.6 39.0 33 17.4 35.0 WSW | 250 11.0 23.3 WSW | 248 35.6 49.2 38.0
9/2/26 - 2315 44.8 40.1 34 18.1 35.2 WSW | 241 8.8 21.0 WSW | 246 35.6 49.2 38.0
9/2/26 - 2300 44.2 39.2 34 17.6 34.8 WSW | 241 9.3 20.1 WSW | 258 35.6 49.2 38.0
9/2/26 - 2245 43.6 38.3 41 21.2 35.4 WSW | 248 9.6 19.4 WSW | 258 35.6 49.2 38.0
9/2/26 - 2230 43.2 37.9 46 23.9 35.8 WSW | 251 9.1 25.6 WSW | 244 35.6 49.2 38.0
9/2/26 - 2215 43.1 38.3 53 26.9 36.7 WSW | 250 8.1 15.9 WNW | 297 35.6 49.2 38.0
9/2/26 - 2200 41.8 36.6 62 29.7 36.9 WSW | 245 8.3 17.5 SW | 236 35.6 49.2 38.0
9/2/26 - 2145 41.4 35.8 61 29.1 36.5 WSW | 246 9.2 18.7 WSW | 243 35.6 49.2 38.0
9/2/26 - 2130 41.2 36.0 60 28.3 36.1 WSW | 248 8.2 19.3 SW | 235 35.6 49.2 38.0
9/2/26 - 2115 41.2 36.1 59 27.9 36.0 WSW | 247 8.0 17.3 SW | 232 35.6 49.2 38.0
9/2/26 - 2100 41.4 36.0 58 27.5 35.9 WSW | 240 8.4 15.5 SW | 227 35.6 49.2 38.0
9/2/26 - 2045 40.6 38.0 60 27.9 35.6 SW | 220 4.1 16.3 W | 260 35.6 49.2 38.0
9/2/26 - 2030 40.3 38.4 65 29.5 36.0 SSW | 202 3.2 13.7 W | 260 35.6 49.2 38.0
9/2/26 - 2015 40.3 36.0 66 30.0 36.2 WSW | 241 6.2 16.4 W | 278 35.6 49.2 38.0
9/2/26 - 2000 40.6 38.0 65 29.6 36.2 SW | 233 4.0 13.4 W | 264 35.6 49.2 38.0
9/2/26 - 1945 41.1 39.2 62 29.2 36.3 SW | 228 3.4 11.9 W | 269 35.6 49.2 38.0
9/2/26 - 1930 41.6 - 58 27.9 36.2 SSW | 199 2.2 8.6 S | 185 35.6 49.2 38.0
9/2/26 - 1915 42.1 39.1 55 27.1 36.2 SW | 225 4.8 21.4 WSW | 242 35.6 49.2 38.0
9/2/26 - 1900 42.7 37.9 47 24.1 35.6 SW | 233 7.9 19.3 WSW | 242 35.6 49.2 38.0
9/2/26 - 1845 43.1 38.6 48 24.6 36.0 SW | 235 7.6 22.1 W | 259 35.6 49.2 38.0
9/2/26 - 1830 43.3 39.0 47 24.6 36.1 WSW | 241 7.3 23.0 W | 265 35.6 49.2 38.0
9/2/26 - 1815 43.6 39.8 48 24.9 36.4 WSW | 244 6.3 21.0 WSW | 239 35.6 49.2 38.0
9/2/26 - 1800 43.9 39.5 47 25.2 36.6 WSW | 250 7.7 20.3 W | 263 35.6 49.2 38.0
9/2/26 - 1745 45.0 42.3 43 24.1 36.9 WSW | 241 5.1 15.1 SW | 232 35.6 49.2 38.0
9/2/26 - 1730 45.4 41.9 45 25.1 37.4 SW | 232 6.5 19.8 WSW | 253 35.6 49.2 38.0
9/2/26 - 1715 45.7 42.7 44 25.0 37.6 SW | 234 5.9 18.9 W | 264 35.6 49.2 38.0
9/2/26 - 1700 45.9 41.4 42 24.1 37.4 WSW | 254 8.8 23.0 WSW | 238 35.6 49.2 38.0
9/2/26 - 1645 46.3 41.8 42 24.8 37.8 WSW | 250 9.2 26.8 WSW | 241 35.6 49.2 38.0
9/2/26 - 1630 46.5 42.0 42 24.4 37.8 WSW | 251 9.3 24.1 W | 262 35.6 49.2 38.0
9/2/26 - 1615 46.7 44.2 43 25.5 38.2 WSW | 240 5.1 19.2 WSW | 256 35.6 49.2 38.0
9/2/26 - 1600 46.7 44.1 44 26.1 38.4 WSW | 254 5.4 18.5 WNW | 290 35.6 49.2 38.0
9/2/26 - 1545 46.6 44.2 46 26.8 38.6 WSW | 240 5.1 19.7 WSW | 245 35.6 49.2 38.0
9/2/26 - 1530 46.8 44.2 46 27.0 38.7 SW | 220 5.4 20.0 SW | 222 35.6 49.2 38.0
9/2/26 - 1515 47.0 43.7 46 27.1 38.9 SW | 228 6.8 26.3 S | 172 35.6 49.2 38.0
9/2/26 - 1500 47.5 43.7 44 26.9 39.1 SW | 223 8.2 23.7 SSW | 204 35.6 49.2 38.0
9/2/26 - 1445 46.7 44.2 45 26.4 38.5 SSW | 196 5.3 20.8 SSW | 203 35.6 49.2 38.0
9/2/26 - 1430 46.9 44.7 44 26.1 38.5 SW | 217 4.7 25.5 SW | 225 35.6 49.2 38.0
9/2/26 - 1415 46.5 43.4 45 26.3 38.4 SW | 226 6.2 21.9 SW | 226 35.6 49.2 38.0
9/2/26 - 1400 46.6 43.2 45 26.5 38.5 SSW | 210 6.8 25.2 S | 191 35.6 49.2 38.0
9/2/26 - 1345 46.1 42.4 46 26.5 38.2 SW | 218 7.2 19.8 WSW | 258 35.6 49.2 38.0
9/2/26 - 1330 45.9 43.5 45 25.8 37.9 SSW | 205 4.8 22.4 WSW | 254 35.6 49.2 38.0
9/2/26 - 1315 46.2 43.0 44 25.2 37.9 SW | 216 6.3 21.1 S | 182 35.6 49.2 38.0
9/2/26 - 1300 46.9 42.4 42 25.1 38.2 SW | 219 9.5 24.9 WSW | 244 35.6 49.2 38.0
9/2/26 - 1245 47.1 43.1 42 25.2 38.4 SSW | 203 8.3 24.6 S | 183 35.6 49.2 38.0
9/2/26 - 1230 46.8 42.8 42 25.1 38.2 SW | 216 8.3 25.2 WSW | 241 35.6 49.2 38.0
9/2/26 - 1215 46.9 42.9 41 24.7 38.1 SSW | 208 8.2 19.7 SSW | 202 35.6 49.2 38.0
9/2/26 - 1200 47.1 43.5 40 24.2 38.0 SW | 214 7.4 24.9 WSW | 243 35.6 49.2 38.0
9/2/26 - 1145 46.4 41.9 40 23.4 37.4 SW | 224 9.0 27.2 WSW | 245 35.6 47.7 38.0
9/2/26 - 1130 46.3 41.9 40 23.1 37.3 SW | 220 8.8 30.6 WSW | 252 35.6 47.7 38.0
9/2/26 - 1115 45.5 40.3 40 22.9 36.8 SW | 229 10.5 25.2 SW | 221 35.6 46.9 38.0
9/2/26 - 1100 46.1 40.8 39 22.7 37.1 SW | 230 11.0 23.1 SW | 225 35.6 46.9 38.0
9/2/26 - 1045 45.2 40.2 40 22.2 36.5 SW | 225 9.7 20.4 W | 272 35.6 46.6 38.0
9/2/26 - 1030 45.0 41.6 40 21.9 36.3 SW | 215 6.1 21.4 W | 265 35.6 46.2 38.0
9/2/26 - 1015 44.6 40.4 41 22.1 36.1 SSW | 198 7.5 22.6 SSW | 196 35.6 45.5 38.0
9/2/26 - 1000 43.6 38.9 42 22.2 35.6 SSW | 195 8.1 21.1 SSW | 205 35.6 44.7 38.0
9/2/26 - 0945 42.5 37.0 44 22.2 35.0 SSW | 200 9.3 22.1 S | 189 35.6 43.5 38.0
9/2/26 - 0930 41.4 36.7 44 21.3 34.1 SSW | 212 7.1 19.9 SSW | 212 35.6 43.0 38.0
9/2/26 - 0915 39.0 32.1 46 19.9 32.3 SW | 225 10.7 24.2 WSW | 239 35.6 40.2 38.0
9/2/26 - 0900 37.8 30.9 46 18.9 31.4 SW | 226 10.0 25.2 SW | 225 35.6 39.8 38.0
9/2/26 - 0845 37.9 30.4 46 18.9 31.4 SW | 223 11.5 27.2 SW | 220 35.6 39.8 38.0
9/2/26 - 0830 38.1 31.9 45 18.7 31.5 SW | 221 8.7 18.8 WSW | 247 35.6 39.8 38.0
9/2/26 - 0815 37.6 30.7 46 18.5 31.1 SW | 223 9.9 26.2 SW | 234 35.6 39.8 38.0
9/2/26 - 0800 37.4 30.4 46 18.6 31.0 SW | 220 9.8 20.6 W | 269 35.6 39.8 38.0
9/2/26 - 0745 36.8 30.4 47 18.2 30.6 SW | 220 8.6 27.6 WSW | 249 35.6 39.8 38.0
9/2/26 - 0730 36.7 30.3 46 18.0 30.5 SW | 221 8.5 23.1 WSW | 242 35.6 39.8 38.0
9/2/26 - 0715 36.5 29.4 47 18.2 30.4 SW | 223 9.8 24.7 SSW | 205 35.6 39.8 38.0
9/2/26 - 0700 36.3 29.3 47 18.2 30.3 SW | 216 9.5 24.5 SW | 220 35.6 39.8 38.0
9/2/26 - 0645 36.2 30.3 47 17.8 30.1 SW | 218 7.4 22.6 SW | 231 35.6 39.8 38.0
9/2/26 - 0630 35.8 30.3 50 18.8 30.2 SSW | 213 6.8 20.3 SSW | 203 35.6 39.8 38.0
9/2/26 - 0615 36.0 29.5 49 18.6 30.2 SW | 229 8.3 22.4 WNW | 293 35.7 39.8 38.0
9/2/26 - 0600 36.2 30.4 48 18.6 30.3 SW | 222 7.2 22.5 WSW | 250 35.8 39.8 38.0
9/2/26 - 0545 36.3 30.6 50 19.2 30.5 SW | 225 7.1 29.3 W | 264 36.1 39.8 38.0
9/2/26 - 0530 36.2 29.0 54 21.2 31.0 SW | 234 9.8 23.0 WSW | 249 36.1 39.8 38.0
9/2/26 - 0515 36.4 28.6 57 22.5 31.4 SW | 235 11.3 28.4 SW | 235 36.1 39.8 38.0
9/2/26 - 0500 36.5 28.0 58 23.0 31.7 WSW | 240 13.3 34.8 WSW | 245 36.1 39.8 38.0
9/2/26 - 0445 36.7 28.4 58 23.2 31.9 WSW | 240 12.7 33.5 SW | 231 36.3 39.8 38.0
9/2/26 - 0430 37.3 30.7 55 22.6 32.0 SW | 235 9.0 26.8 SW | 236 36.7 39.8 38.0
9/2/26 - 0415 37.4 30.8 55 22.6 32.1 SW | 229 9.2 24.1 SW | 234 37.2 39.8 38.0
9/2/26 - 0400 37.8 31.6 51 21.4 32.0 SW | 219 8.7 27.7 SSW | 200 37.7 39.8 38.0
9/2/26 - 0345 38.0 30.2 49 20.6 31.9 SW | 232 12.4 24.6 SW | 228 37.8 39.8 38.0
9/2/26 - 0330 38.1 31.5 49 20.8 32.0 SW | 228 9.4 27.7 W | 264 37.9 39.8 38.0
9/2/26 - 0315 38.1 31.5 50 21.3 32.2 SW | 234 9.7 23.1 WNW | 293 38.0 39.8 38.0
9/2/26 - 0300 38.0 30.4 52 21.9 32.3 SW | 227 11.9 38.0 SSW | 208 38.0 39.8 38.0
9/2/26 - 0245 38.2 31.0 52 22.0 32.4 WSW | 238 10.9 28.8 W | 276 38.0 39.8 37.0
9/2/26 - 0230 38.6 31.7 50 21.6 32.5 SW | 234 10.4 24.7 S | 177 38.0 39.8 37.0
9/2/26 - 0215 39.1 30.9 45 19.8 32.4 SW | 235 14.3 34.5 WSW | 244 38.7 39.8 37.0
9/2/26 - 0200 39.1 31.4 45 19.4 32.3 SW | 233 12.9 29.9 WSW | 255 38.7 39.8 37.0
9/2/26 - 0145 39.3 31.3 43 18.9 32.2 SW | 222 13.7 33.0 S | 173 38.7 39.8 37.0
9/2/26 - 0130 39.6 31.2 43 18.6 32.3 SW | 227 15.1 37.0 WSW | 257 38.7 39.8 37.0
9/2/26 - 0115 39.0 31.0 45 19.3 32.2 SW | 230 13.7 33.0 SW | 231 38.7 39.6 33.0
9/2/26 - 0100 38.7 30.0 45 19.3 32.0 SW | 230 15.7 36.8 WSW | 252 38.3 54.0 40.0
9/2/26 - 0045 39.2 31.1 43 18.5 32.1 SW | 226 14.2 39.2 WSW | 238 38.3 54.0 40.0
9/2/26 - 0030 38.6 30.9 45 19.3 31.9 SW | 224 12.3 31.4 SSW | 192 38.3 54.0 40.0
9/2/26 - 0015 38.6 30.3 45 18.9 31.8 SW | 227 14.1 31.8 WSW | 246 38.3 54.0 40.0
9/2/26 - 0000 38.7 30.3 46 19.5 32.0 SW | 230 14.5 32.0 WSW | 255 38.4 54.0 40.0
9/1/26 - 2345 39.4 31.4 44 19.3 32.4 SW | 230 13.8 33.7 SSW | 211 39.0 54.0 40.0
9/1/26 - 2330 39.5 32.2 45 19.7 32.6 SW | 225 12.0 29.4 SW | 224 39.2 54.0 40.0
9/1/26 - 2315 40.0 32.7 44 20.1 33.0 SW | 228 12.5 32.4 NW | 310 39.2 54.0 40.0
9/1/26 - 2300 40.5 33.2 44 20.4 33.3 SW | 221 12.6 34.2 SSW | 200 39.2 54.0 40.0
9/1/26 - 2245 40.0 32.3 48 22.0 33.5 SW | 220 13.6 33.7 S | 191 39.2 54.0 40.0
9/1/26 - 2230 39.7 30.9 52 23.4 33.7 SW | 234 17.0 33.7 WSW | 246 39.2 54.0 40.0
9/1/26 - 2215 39.4 30.0 55 24.6 33.9 SW | 235 19.0 40.0 SW | 219 39.2 54.0 40.0
9/1/26 - 2200 39.6 31.1 57 25.4 34.2 SW | 228 15.4 37.1 SW | 217 39.2 54.0 37.1
9/1/26 - 2145 39.5 31.8 58 26.1 34.4 SW | 227 13.1 33.5 WSW | 255 39.2 54.0 36.0
9/1/26 - 2130 39.4 31.7 60 26.8 34.6 SW | 231 13.0 33.4 WSW | 254 39.2 54.0 36.0
9/1/26 - 2115 39.5 32.7 62 27.4 34.8 SW | 221 10.9 27.7 W | 263 39.4 54.0 36.0
9/1/26 - 2100 39.7 32.2 62 27.6 35.0 SW | 223 12.7 35.7 WSW | 244 39.5 54.0 36.0
9/1/26 - 2045 39.8 32.9 63 28.1 35.2 SW | 222 11.2 28.8 SW | 224 39.7 54.0 36.0
9/1/26 - 2030 40.0 32.6 62 28.2 35.4 SW | 221 12.6 32.1 SW | 215 39.9 54.0 36.0
9/1/26 - 2015 40.2 33.7 62 28.3 35.5 SW | 219 10.6 28.0 W | 262 40.1 54.0 36.0
9/1/26 - 2000 40.4 33.5 62 28.3 35.6 SW | 221 11.6 29.9 WSW | 243 40.3 54.0 36.0
9/1/26 - 1945 40.7 35.7 60 27.9 35.7 SW | 225 7.3 19.4 S | 189 40.4 54.0 36.0
9/1/26 - 1930 41.2 35.5 58 27.5 35.8 SW | 221 9.2 26.1 SW | 214 40.7 54.0 36.0
9/1/26 - 1915 41.9 36.7 56 27.2 36.1 SW | 224 8.3 22.9 WSW | 251 40.7 54.0 36.0
9/1/26 - 1900 42.6 37.9 52 26.4 36.3 SW | 234 7.7 21.7 SW | 217 40.7 54.0 36.0
9/1/26 - 1845 43.4 39.5 49 25.4 36.4 SW | 218 6.4 24.4 S | 191 40.7 54.0 36.0
9/1/26 - 1830 43.9 39.2 48 25.3 36.7 SW | 226 8.5 25.4 W | 261 40.7 54.0 36.0
9/1/26 - 1815 44.5 40.2 46 24.9 36.8 WSW | 238 7.6 21.1 WSW | 255 40.7 54.0 36.0
9/1/26 - 1800 45.0 41.1 44 24.5 37.0 SW | 226 7.0 19.7 WSW | 256 40.7 54.0 36.0
9/1/26 - 1745 46.2 42.1 42 24.5 37.6 SW | 220 8.0 24.2 WSW | 241 40.7 54.0 36.0
9/1/26 - 1730 46.6 43.3 41 24.1 37.8 SW | 219 6.5 25.4 SW | 225 40.7 54.0 36.0
9/1/26 - 1715 47.0 44.3 41 24.5 38.1 WSW | 242 5.7 16.6 W | 260 40.7 54.0 36.0
9/1/26 - 1700 47.9 45.0 39 24.4 38.5 SW | 234 6.3 20.5 WSW | 254 40.7 54.0 36.0
9/1/26 - 1645 48.5 46.4 39 24.4 38.9 SW | 222 5.1 22.9 SSW | 201 40.7 54.0 36.0
9/1/26 - 1630 49.4 46.1 38 24.6 39.4 SW | 228 7.9 21.3 SSW | 199 40.7 54.0 36.0
9/1/26 - 1615 49.7 47.5 36 23.8 39.3 SSW | 206 5.7 19.6 SW | 220 40.7 54.0 36.0
9/1/26 - 1600 50.5 - 35 23.6 39.6 SSW | 211 4.8 16.6 SW | 215 40.7 54.0 36.0
9/1/26 - 1545 50.8 - 34 23.5 39.8 SW | 215 7.2 21.5 S | 183 40.7 54.0 36.0
9/1/26 - 1530 51.2 - 33 23.2 39.9 SSW | 209 8.9 31.9 WSW | 257 40.7 54.0 36.0
9/1/26 - 1515 50.9 - 33 22.9 39.6 SSW | 212 9.2 36.0 SW | 228 40.7 54.0 36.0
9/1/26 - 1500 51.2 - 32 22.5 39.7 SSW | 212 8.6 25.8 WSW | 240 40.7 54.0 32.2
9/1/26 - 1445 52.3 - 30 21.7 40.0 SW | 216 8.9 30.7 SW | 216 40.7 54.0 32.2
9/1/26 - 1430 51.6 - 32 22.5 39.9 SW | 224 11.0 27.8 SW | 234 40.7 53.9 32.2
9/1/26 - 1415 50.1 - 34 22.9 39.2 SW | 225 9.3 26.5 SW | 229 40.7 53.9 32.2
9/1/26 - 1400 50.5 - 34 23.3 39.6 SSW | 213 8.6 24.9 SSW | 207 40.7 53.9 32.2
9/1/26 - 1345 51.2 - 33 23.0 39.8 SSW | 203 7.1 23.0 SSE | 166 40.7 53.9 32.2
9/1/26 - 1330 50.4 - 33 22.4 39.3 SSW | 205 6.7 25.6 SSW | 208 40.7 53.9 32.2
9/1/26 - 1315 50.7 - 33 23.0 39.6 SSW | 212 8.4 26.7 WSW | 244 40.7 53.9 32.2
9/1/26 - 1300 52.0 - 33 23.8 40.5 SSW | 204 7.4 24.6 SSW | 202 40.7 53.9 32.2
9/1/26 - 1245 51.3 - 34 24.0 40.2 SSW | 210 8.0 20.8 WSW | 243 40.7 53.7 32.2
9/1/26 - 1230 51.4 - 33 23.2 40.0 SSW | 205 8.3 22.7 S | 177 40.7 53.7 32.2
9/1/26 - 1215 51.6 - 31 22.2 39.8 S | 191 6.9 22.8 SSW | 194 40.7 53.7 32.2
9/1/26 - 1200 51.8 - 30 21.5 39.7 S | 185 6.3 19.0 SSE | 167 40.7 53.4 32.2
9/1/26 - 1145 50.4 - 32 21.5 39.0 SSW | 202 7.1 22.7 SSW | 202 40.7 52.6 32.2
9/1/26 - 1130 51.0 - 33 22.7 39.6 SW | 214 7.2 18.2 SSE | 158 40.7 52.2 32.2
9/1/26 - 1115 50.0 46.9 35 23.6 39.4 SSW | 204 7.6 19.9 SSW | 211 40.7 51.3 32.2
9/1/26 - 1100 50.0 48.6 36 23.8 39.4 SSW | 204 4.4 13.6 SW | 216 40.7 51.3 32.2
9/1/26 - 1045 49.5 47.7 36 23.8 39.2 SW | 226 5.0 15.8 SW | 233 40.7 51.1 32.2
9/1/26 - 1030 48.5 45.6 38 23.9 38.7 SW | 216 6.5 19.5 SW | 226 40.7 49.8 32.2
Max 52.3 48.6 66 30.0 40.5 - 19.0 40.0 - 44.9 54.0 40.0
Avg 43.4 37.6 42 21.3 35.3 - 8.0 22.6 - - - -
Min 35.8 28.0 23 7.0 30.1 - 1.3 5.2 - 35.6 39.6 9.9